Latest Weather Observations for Marble Bar

IDW60801

Issued at 7:34 am WST Tuesday 17 October 2017 (issued every 30 minutes, with the page automatically refreshed every 10 minutes)

About weather observations | Map of weather stations | Latest weather observations for WA | Other Formats
Station Details ID: 004106 Name: MARBLE BAR Lat: -21.18 Lon: 119.75 Height: 182.3 m
Data from the previous 72 hours. | See also: Recent months at Marble Bar
Date/Time
WST
Temp
°C
App
Temp
°C
Dew
Point
°C
Rel
Hum
%
Delta-T
°C
Wind Press
QNH
hPa
Press
MSL
hPa
Rain since
9am
mm
Dir  Spd
km/h
Gust
km/h
Spd
kts
Gust
kts
17/07:30am 30.3 28.7 10.3 29 11.5 S 9 13 5 7 1009.9 1008.6 0.0
17/07:00am 28.4 27.5 11.5 35 9.8 SW 7 13 4 7 1009.6 1008.3 0.0
17/06:30am 26.1 25.7 12.9 44 7.7 WSW 7 9 4 5 1009.3 1008.0 0.0
17/06:00am 22.9 22.9 12.5 52 6.0 SW 4 6 2 3 1008.9 1007.6 0.0
17/05:30am 21.8 22.6 12.4 55 5.4 CALM 0 0 0 0 1008.5 1007.2 0.0
17/05:00am 22.5 23.3 12.7 54 5.7 CALM 0 0 0 0 1008.2 1006.9 0.0
17/04:30am 22.2 22.7 11.6 51 6.0 CALM 0 0 0 0 1007.8 1006.5 0.0
17/04:00am 22.4 23.1 12.1 52 5.9 CALM 0 0 0 0 1007.6 1006.3 0.0
17/03:30am 23.7 24.5 12.7 50 6.4 CALM 0 0 0 0 1007.4 1006.1 0.0
17/03:00am 24.1 24.9 12.4 48 6.8 CALM 0 0 0 0 1007.3 1006.0 0.0
17/02:30am 25.7 26.7 13.2 46 7.4 CALM 0 2 0 1 1007.3 1006.0 0.0
17/02:00am 26.2 26.9 13.3 45 7.6 S 2 4 1 2 1007.3 1006.0 0.0
17/01:30am 26.5 26.3 12.9 43 8.0 WSW 6 7 3 4 1007.6 1006.3 0.0
17/01:00am 27.1 26.8 12.7 41 8.5 SSW 6 7 3 4 1008.0 1006.7 0.0
17/12:30am 28.1 28.9 12.5 38 9.2 CALM 0 0 0 0 1008.3 1007.0 0.0
17/12:00am 29.5 29.3 12.9 36 9.9 WSW 6 13 3 7 1008.4 1007.1 0.0
 
Date/Time
WST
Temp
°C
App
Temp
°C
Dew
Point
°C
Rel
Hum
%
Delta-T
°C
Wind Press
QNH
hPa
Press
MSL
hPa
Rain since
9am
mm
Dir  Spd
km/h
Gust
km/h
Spd
kts
Gust
kts
16/11:30pm 29.9 28.3 12.8 35 10.2 W 13 20 7 11 1008.4 1007.1 0.0
16/11:00pm 30.6 28.3 13.0 34 10.6 W 17 22 9 12 1008.5 1007.2 0.0
16/10:30pm 30.6 29.3 12.5 33 10.8 W 11 17 6 9 1008.7 1007.4 0.0
16/10:00pm 31.1 29.4 12.5 32 11.1 WNW 13 22 7 12 1008.7 1007.4 0.0
16/09:30pm 31.7 29.3 12.5 31 11.5 WNW 17 24 9 13 1008.7 1007.4 0.0
16/09:00pm 32.3 29.9 11.5 28 12.3 WNW 15 22 8 12 1008.6 1007.3 0.0
16/08:30pm 32.9 30.1 11.4 27 12.7 NW 17 26 9 14 1008.6 1007.3 0.0
16/08:00pm 34.1 30.2 8.7 21 14.5 NW 19 30 10 16 1008.2 1006.9 0.0
16/07:30pm 34.6 31.2 10.4 23 14.2 NW 19 26 10 14 1007.9 1006.6 0.0
16/07:00pm 35.3 32.6 10.4 22 14.6 NW 15 24 8 13 1007.3 1006.0 0.0
16/06:30pm 36.0 31.7 3.3 13 17.3 NW 15 24 8 13 1006.7 1005.4 0.0
16/06:00pm 36.7 32.1 1.5 11 18.2 WNW 15 20 8 11 1006.1 1004.9 0.0
16/05:30pm 38.0 33.3 1.1 10 19.0 NW 15 30 8 16 1005.9 1004.7 0.0
16/05:00pm 38.6 33.3 1.6 10 19.4 WNW 19 28 10 15 1005.5 1004.3 0.0
16/04:30pm 39.5 33.8 0.8 9 20.0 NW 20 32 11 17 1005.2 1003.9 0.0
16/04:00pm 39.6 34.0 0.9 9 20.1 NW 20 30 11 16 1005.4 1004.2 0.0
16/03:30pm 40.1 35.1 1.2 9 20.3 WNW 17 28 9 15 1005.4 1004.2 0.0
16/03:00pm 40.3 36.1 1.4 9 20.5 WNW 13 28 7 15 1005.6 1004.4 0.0
16/02:30pm 40.0 35.2 2.6 10 20.0 WNW 17 30 9 16 1006.0 1004.8 0.0
16/02:00pm 40.0 33.8 -0.5 8 20.7 WNW 22 30 12 16 1006.5 1005.2 0.0
16/01:30pm 40.2 35.2 1.3 9 20.4 WNW 17 24 9 13 1006.8 1005.5 0.0
16/01:00pm 39.7 34.2 0.9 9 20.2 NW 19 30 10 16 1007.3 1006.0 0.0
16/12:30pm 38.9 34.7 1.8 10 19.4 NW 13 22 7 12 1007.8 1006.5 0.0
16/12:00pm 39.9 35.5 2.5 10 19.9 NW 15 28 8 15 1008.3 1007.0 0.0
16/11:30am 38.6 34.8 4.1 12 18.7 NW 13 22 7 12 1008.8 1007.5 0.0
16/11:00am 37.8 33.6 5.7 14 17.8 NW 17 24 9 13 1009.3 1008.0 0.0
16/10:30am 37.6 33.8 5.6 14 17.6 WNW 15 19 8 10 1009.8 1008.5 0.0
16/10:00am 36.0 32.8 5.3 15 16.7 W 11 19 6 10 1009.9 1008.6 0.0
16/09:30am 36.0 33.2 5.3 15 16.7 NW 9 19 5 10 1010.0 1008.7 0.0
16/09:00am 34.5 33.0 8.3 20 14.9 NW 6 13 3 7 1010.1 1008.8 0.0
16/08:30am 32.2 31.0 9.7 25 12.9 W 6 7 3 4 1010.3 1009.1 0.0
16/08:00am 31.0 30.2 9.8 27 12.1 W 4 7 2 4 1010.3 1009.1 0.0
16/07:30am 29.1 28.7 9.8 30 10.9 S 2 6 1 3 1010.2 1008.9 0.0
16/07:00am 27.4 27.4 9.7 33 9.9 CALM 0 2 0 1 1010.1 1008.8 0.0
16/06:30am 25.9 26.0 10.1 37 8.8 CALM 0 0 0 0 1009.9 1008.6 0.0
16/06:00am 23.1 22.5 8.8 40 7.7 ESE 2 4 1 2 1009.5 1008.2 0.0
16/05:30am 23.1 22.7 8.4 39 7.9 CALM 0 0 0 0 1009.0 1007.7 0.0
16/05:00am 24.1 22.3 8.1 36 8.6 SW 7 9 4 5 1008.6 1007.3 0.0
16/04:30am 23.6 21.8 7.3 35 8.6 SSW 6 6 3 3 1008.4 1007.1 0.0
16/04:00am 25.2 24.6 7.3 32 9.5 CALM 0 0 0 0 1008.3 1007.0 0.0
16/03:30am 25.0 23.6 5.7 29 9.9 WSW 2 4 1 2 1008.2 1006.9 0.0
16/03:00am 25.9 24.0 4.9 26 10.8 SSW 4 7 2 4 1008.1 1006.8 0.0
16/02:30am 26.0 24.4 4.5 25 10.9 SSE 2 4 1 2 1008.0 1006.7 0.0
16/02:00am 25.8 23.8 4.3 25 10.9 SE 4 9 2 5 1008.0 1006.7 0.0
16/01:30am 27.6 25.5 4.0 22 12.0 WNW 4 7 2 4 1008.2 1006.9 0.0
16/01:00am 28.1 25.6 3.7 21 12.4 SW 6 9 3 5 1008.4 1007.1 0.0
16/12:30am 28.9 26.4 3.7 20 12.8 WSW 6 13 3 7 1008.5 1007.2 0.0
16/12:00am 29.9 27.2 3.8 19 13.4 WSW 7 17 4 9 1008.8 1007.5 0.0
 
Date/Time
WST
Temp
°C
App
Temp
°C
Dew
Point
°C
Rel
Hum
%
Delta-T
°C
Wind Press
QNH
hPa
Press
MSL
hPa
Rain since
9am
mm
Dir  Spd
km/h
Gust
km/h
Spd
kts
Gust
kts
15/11:30pm 30.5 27.9 4.3 19 13.6 W 7 15 4 8 1008.9 1007.6 0.0
15/11:00pm 31.1 25.8 4.8 19 13.9 W 22 30 12 16 1008.8 1007.5 0.0
15/10:30pm 31.2 26.2 6.3 21 13.4 W 22 33 12 18 1008.8 1007.5 0.0
15/10:00pm 31.3 26.4 8.3 24 12.8 W 24 32 13 17 1008.9 1007.6 0.0
15/09:30pm 31.6 27.4 9.8 26 12.5 WNW 22 32 12 17 1009.1 1007.8 0.0
15/09:00pm 32.1 28.9 11.3 28 12.2 WNW 19 28 10 15 1009.1 1007.8 0.0
15/08:30pm 32.6 30.1 12.3 29 12.1 WNW 17 32 9 17 1009.0 1007.7 0.0
15/08:00pm 32.6 29.9 12.8 30 11.9 NW 19 28 10 15 1009.1 1007.8 0.0
15/07:30pm 33.1 29.8 12.7 29 12.3 NW 22 33 12 18 1008.8 1007.5 0.0
15/07:00pm 34.0 30.6 12.4 27 13.0 NW 22 37 12 20 1008.3 1007.0 0.0
15/06:30pm 34.9 31.9 12.5 25 13.5 WNW 20 35 11 19 1007.5 1006.2 0.0
15/06:00pm 36.1 32.9 13.0 25 14.2 WNW 22 35 12 19 1006.9 1005.6 0.0
15/05:30pm 38.0 34.5 8.7 17 17.0 WNW 17 24 9 13 1006.5 1005.2 0.0
15/05:00pm 38.8 36.6 9.4 17 17.3 NW 11 20 6 11 1006.3 1005.0 0.0
15/04:30pm 39.5 37.0 8.1 15 18.1 NW 11 19 6 10 1006.1 1004.9 0.0
15/04:00pm 40.1 36.9 8.5 15 18.4 NW 15 20 8 11 1006.1 1004.9 0.0
15/03:30pm 40.3 38.2 9.6 16 18.2 N 11 19 6 10 1006.3 1005.0 0.0
15/03:00pm 39.2 36.1 8.8 16 17.8 NW 15 24 8 13 1006.5 1005.2 0.0
15/02:30pm 40.2 37.3 9.6 16 18.1 N 15 26 8 14 1006.6 1005.3 0.0
15/02:00pm 39.4 37.1 8.9 16 17.8 WNW 11 20 6 11 1007.0 1005.7 0.0
15/01:30pm 39.6 36.7 8.1 15 18.2 WNW 13 24 7 13 1007.4 1006.1 0.0
15/01:00pm 39.4 36.9 9.8 17 17.5 NW 13 20 7 11 1007.9 1006.6 0.0
15/12:30pm 39.0 36.8 9.5 17 17.3 NW 11 19 6 10 1008.3 1007.0 0.0
15/12:00pm 38.1 36.6 10.5 19 16.4 NNW 9 17 5 9 1008.8 1007.5 0.0
15/11:30am 37.4 35.9 10.7 20 15.9 NNE 9 17 5 9 1009.2 1007.9 0.0
15/11:00am 36.5 35.8 11.3 22 15.1 NW 6 11 3 6 1009.7 1008.4 0.0
15/10:30am 36.0 35.4 11.6 23 14.6 ENE 6 11 3 6 1010.2 1008.9 0.0
15/10:00am 35.3 34.9 12.9 26 13.7 E 7 19 4 10 1010.5 1009.3 0.0
15/09:30am 34.5 34.0 12.2 26 13.4 ENE 6 9 3 5 1010.7 1009.5 0.0
15/09:00am 33.5 33.0 12.5 28 12.6 ENE 7 11 4 6 1010.8 1009.6 0.0
15/08:30am 32.3 32.1 13.0 31 11.6 E 6 9 3 5 1010.8 1009.6 0.0
15/08:00am 31.0 31.2 14.2 36 10.3 NE 6 7 3 4 1010.9 1009.7 0.0
15/07:30am 29.6 30.2 14.2 39 9.4 ENE 4 6 2 3 1010.7 1009.5 0.0
15/07:00am 28.0 29.0 14.3 43 8.3 SE 2 4 1 2 1010.5 1009.3 0.0
15/06:30am 25.6 26.1 14.1 49 6.9 SSE 4 6 2 3 1010.2 1008.9 0.0
15/06:00am 24.5 24.4 13.4 50 6.5 SE 6 11 3 6 1009.9 1008.6 0.0
15/05:30am 23.9 22.7 12.8 49 6.4 ENE 11 20 6 11 1009.4 1008.1 0.0
15/05:00am 24.3 25.1 12.6 48 6.8 CALM 0 2 0 1 1008.8 1007.5 0.0
15/04:30am 26.0 26.5 12.8 44 7.7 N 2 4 1 2 1008.3 1007.0 0.0
15/04:00am 25.0 24.8 12.9 47 7.1 S 6 7 3 4 1007.9 1006.6 0.0
15/03:30am 25.8 26.0 13.0 45 7.5 SSE 4 6 2 3 1008.0 1006.7 0.0
15/03:00am 26.9 26.5 12.5 40 8.4 SW 6 11 3 6 1008.0 1006.7 0.0
15/02:30am 26.1 25.9 12.9 44 7.7 SW 6 9 3 5 1007.9 1006.6 0.0
15/02:00am 26.0 26.9 12.8 44 7.7 CALM 0 4 0 2 1008.1 1006.8 0.0
15/01:30am 25.7 26.5 12.5 44 7.7 CALM 0 0 0 0 1008.2 1006.9 0.0
15/01:00am 26.8 27.6 12.5 41 8.4 CALM 0 0 0 0 1008.5 1007.2 0.0
15/12:30am 27.7 27.7 12.5 39 8.9 E 4 6 2 3 1008.7 1007.4 0.0
15/12:00am 29.1 27.8 12.5 36 9.8 W 11 17 6 9 1009.0 1007.7 0.0
 
Date/Time
WST
Temp
°C
App
Temp
°C
Dew
Point
°C
Rel
Hum
%
Delta-T
°C
Wind Press
QNH
hPa
Press
MSL
hPa
Rain since
9am
mm
Dir  Spd
km/h
Gust
km/h
Spd
kts
Gust
kts
14/11:30pm 29.0 28.6 12.4 36 9.8 WNW 6 7 3 4 1009.2 1007.9 0.0
14/11:00pm 29.8 30.1 12.3 34 10.3 NNW 2 9 1 5 1009.3 1008.0 0.0
14/10:30pm 30.4 29.7 13.2 35 10.3 WNW 9 13 5 7 1009.5 1008.2 0.0
14/10:00pm 30.9 29.6 13.7 35 10.4 WNW 13 28 7 15 1009.7 1008.4 0.0
14/09:30pm 31.3 29.4 13.1 33 10.9 WNW 15 24 8 13 1009.7 1008.4 0.0
14/09:00pm 31.8 29.7 13.5 32 11.1 WNW 17 26 9 14 1009.5 1008.2 0.0
14/08:30pm 32.5 30.1 13.7 32 11.5 WNW 19 32 10 17 1009.3 1008.0 0.0
14/08:00pm 33.2 30.6 13.3 30 12.1 NW 19 32 10 17 1009.0 1007.7 0.0
14/07:30pm 34.0 30.5 13.5 29 12.5 WNW 24 37 13 20 1008.8 1007.5 0.0
14/07:00pm 34.9 32.1 13.1 27 13.3 NW 20 32 11 17 1008.4 1007.1 0.0
14/06:30pm 35.6 32.2 12.5 24 14.0 NW 22 33 12 18 1007.8 1006.5 0.0
14/06:00pm 36.5 33.2 12.7 24 14.5 NNW 22 35 12 19 1007.4 1006.1 0.0
14/05:30pm 37.9 35.6 10.3 19 16.3 NW 13 20 7 11 1007.1 1005.8 0.0
14/05:00pm 38.1 35.4 10.5 19 16.4 NW 15 22 8 12 1007.1 1005.8 0.0
14/04:30pm 38.6 37.0 11.6 20 16.3 NW 11 20 6 11 1007.0 1005.7 0.0
14/04:00pm 39.2 36.5 10.5 18 17.2 NNW 15 26 8 14 1006.9 1005.6 0.0
14/03:30pm 38.4 36.0 11.5 20 16.2 N 15 28 8 15 1007.1 1005.8 0.0
14/03:00pm 38.4 37.0 12.2 21 16.0 NW 11 22 6 12 1007.5 1006.2 0.0
14/02:30pm 39.1 38.6 12.8 21 16.2 NNE 7 19 4 10 1007.8 1006.5 0.0
14/02:00pm 39.0 37.8 12.7 21 16.2 NE 11 20 6 11 1008.0 1006.7 0.0
14/01:30pm 38.8 37.7 13.2 21 15.9 NW 11 17 6 9 1008.4 1007.1 0.0
14/01:00pm 38.3 37.8 14.8 25 14.9 NNW 11 22 6 12 1009.0 1007.7 0.0
14/12:30pm 37.3 36.2 15.2 27 14.0 NNE 15 22 8 12 1009.5 1008.2 0.0
14/12:00pm 36.1 35.6 15.8 30 12.9 NNE 13 22 7 12 1010.0 1008.7 0.0
14/11:30am 35.7 35.6 15.9 30 12.6 NE 11 20 6 11 1010.6 1009.4 0.0
14/11:00am 35.3 36.0 16.1 32 12.2 ENE 7 19 4 10 1011.1 1009.9 0.0
14/10:30am 34.6 34.9 16.0 33 11.8 NE 9 15 5 8 1011.5 1010.3 0.0
14/10:00am 34.0 34.1 16.4 35 11.2 ENE 11 20 6 11 1012.1 1010.8 0.0
14/09:30am 32.7 32.7 17.3 39 9.9 ENE 13 22 7 12 1012.3 1011.0 0.0
14/09:00am 31.7 31.7 17.2 42 9.3 ENE 13 19 7 10 1012.5 1011.2 0.0
14/08:30am 31.0 31.1 18.4 47 8.2 E 15 20 8 11 1012.6 1011.3 0.0
14/08:00am 29.9 30.5 18.7 51 7.3 E 13 22 7 12 1012.6 1011.3 0.0

Other Formats:

Comma delimited format used in spreadsheet applications
http://www.bom.gov.au/fwo/IDW60801/IDW60801.95317.axf

JavaScript Object Notation format (JSON) in row-major order
http://www.bom.gov.au/fwo/IDW60801/IDW60801.95317.json